createdAt,value
2019-04-21T00:00:00.421Z,102847.28
2019-04-21T00:02:52.037Z,102848.34
2019-04-21T00:06:07.577Z,102840.02
2019-04-21T00:08:56.290Z,102840.23
2019-04-21T00:11:48.347Z,102830.13
2019-04-21T00:14:26.372Z,102828.07
2019-04-21T00:17:11.473Z,102824.27
2019-04-21T00:20:15.730Z,102825.74
2019-04-21T00:23:10.630Z,102820.98
2019-04-21T00:25:52.860Z,102814.50
2019-04-21T00:29:02.006Z,102815.55
2019-04-21T00:31:38.143Z,102812.13
2019-04-21T00:34:15.281Z,102806.93
2019-04-21T00:37:17.055Z,102801.72
2019-04-21T00:40:17.835Z,102795.20
2019-04-21T00:43:03.670Z,102793.16
2019-04-21T00:45:49.146Z,102791.52
2019-04-21T00:48:47.645Z,102787.69
2019-04-21T00:51:53.945Z,102783.34
2019-04-21T00:54:41.558Z,102789.77
2019-04-21T00:57:35.725Z,102783.23
2019-04-21T01:00:18.753Z,102776.20
2019-04-21T01:03:11.932Z,102777.28
2019-04-21T01:06:08.194Z,102775.68
2019-04-21T01:08:53.167Z,102774.09
2019-04-21T01:11:44.782Z,102770.19
2019-04-21T01:14:43.856Z,102766.75
2019-04-21T01:17:27.645Z,102764.67
2019-04-21T01:20:11.870Z,102763.97
2019-04-21T01:22:47.938Z,102755.59
2019-04-21T01:25:44.907Z,102753.02
2019-04-21T01:28:48.234Z,102748.79
2019-04-21T01:31:36.571Z,102741.76
2019-04-21T01:34:37.304Z,102743.59
2019-04-21T01:37:21.018Z,102740.66
2019-04-21T01:40:16.842Z,102735.86
2019-04-21T01:43:24.941Z,102735.55
2019-04-21T01:46:14.145Z,102730.84
2019-04-21T01:49:02.170Z,102730.09
2019-04-21T01:52:08.972Z,102723.09
2019-04-21T01:55:08.080Z,102725.91
2019-04-21T01:58:01.440Z,102719.83
2019-04-21T02:00:56.891Z,102718.22
2019-04-21T02:03:58.533Z,102718.33
2019-04-21T02:06:44.465Z,102709.55
2019-04-21T02:09:40.088Z,102705.25
2019-04-21T02:12:31.817Z,102708.48
2019-04-21T02:15:23.658Z,102699.23
2019-04-21T02:18:11.926Z,102703.42
2019-04-21T02:20:56.226Z,102698.25
2019-04-21T02:23:59.061Z,102692.91
2019-04-21T02:26:45.787Z,102690.89
2019-04-21T02:29:41.160Z,102689.23
2019-04-21T02:35:45.544Z,102685.47
2019-04-21T02:38:30.723Z,102687.38
2019-04-21T02:41:06.015Z,102681.22
2019-04-21T02:49:56.950Z,102661.98
2019-04-21T02:55:21.971Z,102658.64
2019-04-21T02:58:29.412Z,102656.58
2019-04-21T03:04:36.174Z,102644.28
2019-04-21T03:10:26.704Z,102636.92
2019-04-21T03:13:13.891Z,102623.19
2019-04-21T03:16:11.885Z,102618.83
2019-04-21T03:18:56.630Z,102615.00
2019-04-21T03:21:48.906Z,102614.15
2019-04-21T03:25:00.934Z,102608.44
2019-04-21T03:31:02.037Z,102606.86
2019-04-21T03:33:46.930Z,102603.37
2019-04-21T03:38:47.342Z,102597.39
2019-04-21T03:42:00.197Z,102607.30
2019-04-21T03:44:30.186Z,102603.33
2019-04-21T03:47:23.494Z,102602.09
2019-04-21T03:50:13.091Z,102599.50
2019-04-21T03:53:03.826Z,102592.47
2019-04-21T04:01:50.573Z,102590.97
2019-04-21T04:04:53.561Z,102590.58
2019-04-21T04:07:59.108Z,102584.06
2019-04-21T04:10:50.325Z,102586.41
2019-04-21T04:13:49.742Z,102584.24
2019-04-21T04:16:50.210Z,102585.63
2019-04-21T04:19:18.012Z,102578.16
2019-04-21T04:27:59.529Z,102575.79
2019-04-21T04:30:45.866Z,102578.03
2019-04-21T04:36:44.689Z,102575.10
2019-04-21T04:45:32.379Z,102572.59
2019-04-21T04:48:10.992Z,102569.56
2019-04-21T04:54:28.492Z,102569.69
2019-04-21T04:56:58.955Z,102574.66
2019-04-21T04:59:42.375Z,102573.88
2019-04-21T05:08:31.507Z,102565.54
2019-04-21T05:11:20.404Z,102561.21
2019-04-21T05:14:03.041Z,102559.96
2019-04-21T05:16:48.411Z,102558.58
2019-04-21T05:19:30.575Z,102550.60
2019-04-21T05:25:09.616Z,102554.25
2019-04-21T05:27:59.108Z,102556.53
2019-04-21T05:31:06.267Z,102555.20
2019-04-21T05:34:00.373Z,102549.39
2019-04-21T05:36:50.544Z,102546.75
2019-04-21T05:39:57.861Z,102555.59
2019-04-21T05:42:53.280Z,102556.07
2019-04-21T05:45:50.189Z,102549.85
2019-04-21T05:48:39.185Z,102556.46
2019-04-21T05:51:31.735Z,102551.07
2019-04-21T05:54:32.775Z,102543.88
2019-04-21T05:57:14.396Z,102542.84
2019-04-21T06:00:12.401Z,102545.88
2019-04-21T06:03:05.686Z,102536.86
2019-04-21T06:08:53.982Z,102542.81
2019-04-21T06:11:30.929Z,102539.58
2019-04-21T06:14:23.087Z,102544.72
2019-04-21T06:17:19.718Z,102543.59
2019-04-21T06:20:10.502Z,102544.31
2019-04-21T06:23:00.727Z,102538.73
2019-04-21T06:28:40.136Z,102535.17
2019-04-21T06:31:57.412Z,102538.48
2019-04-21T06:34:29.667Z,102539.16
2019-04-21T06:40:21.103Z,102540.42
2019-04-21T06:43:15.799Z,102537.06
2019-04-21T06:45:54.363Z,102534.98
2019-04-21T06:48:51.213Z,102537.75
2019-04-21T06:51:49.715Z,102537.00
2019-04-21T06:54:30.651Z,102531.34
2019-04-21T06:57:16.885Z,102530.09
2019-04-21T07:00:10.162Z,102527.05
2019-04-21T07:03:11.528Z,102524.45
2019-04-21T07:05:57.540Z,102521.33
2019-04-21T07:08:53.211Z,102527.21
2019-04-21T07:11:31.793Z,102521.55
2019-04-21T07:14:29.916Z,102515.73
2019-04-21T07:17:19.338Z,102518.95
2019-04-21T07:20:15.895Z,102522.55
2019-04-21T07:23:07.551Z,102518.59
2019-04-21T07:25:51.952Z,102513.70
2019-04-21T07:28:45.629Z,102512.34
2019-04-21T07:31:39.860Z,102508.28
2019-04-21T07:34:27.267Z,102510.45
2019-04-21T07:37:11.566Z,102508.22
2019-04-21T07:40:03.698Z,102505.50
2019-04-21T07:42:51.175Z,102501.84
2019-04-21T07:45:40.802Z,102496.81
2019-04-21T07:48:43.265Z,102487.27
2019-04-21T07:51:50.723Z,102483.94
2019-04-21T07:54:49.267Z,102486.84
2019-04-21T07:57:36.623Z,102487.00
2019-04-21T08:00:31.919Z,102479.52
2019-04-21T08:03:16.149Z,102482.73
2019-04-21T08:06:04.512Z,102477.53
2019-04-21T08:08:54.474Z,102484.69
2019-04-21T08:11:42.307Z,102478.08
2019-04-21T08:14:38.435Z,102479.97
2019-04-21T08:17:30.212Z,102473.67
2019-04-21T08:20:18.440Z,102470.13
2019-04-21T08:23:13.160Z,102473.36
2019-04-21T08:28:57.173Z,102458.27
2019-04-21T08:34:34.783Z,102457.37
2019-04-21T08:37:26.050Z,102450.95
2019-04-21T08:43:08.837Z,102448.73
2019-04-21T08:46:01.603Z,102440.34
2019-04-21T08:51:52.011Z,102444.09
2019-04-21T08:54:39.004Z,102445.22
2019-04-21T08:58:00.752Z,102435.46
2019-04-21T09:01:10.602Z,102435.27
2019-04-21T09:04:10.721Z,102431.91
2019-04-21T09:09:52.861Z,102424.05
2019-04-21T09:12:49.153Z,102417.29
2019-04-21T09:15:34.943Z,102415.17
2019-04-21T09:18:22.927Z,102417.77
2019-04-21T09:21:25.860Z,102405.14
2019-04-21T09:24:16.202Z,102407.64
2019-04-21T09:27:07.180Z,102406.16
2019-04-21T09:29:49.451Z,102401.38
2019-04-21T09:32:33.047Z,102395.87
2019-04-21T09:35:22.315Z,102396.08
2019-04-21T09:38:22.670Z,102388.65
2019-04-21T09:41:06.661Z,102374.17
2019-04-21T09:43:57.420Z,102380.16
2019-04-21T09:46:50.710Z,102378.23
2019-04-21T09:49:39.536Z,102367.62
2019-04-21T09:52:39.153Z,102363.09
2019-04-21T09:55:23.269Z,102365.02
2019-04-21T09:58:21.879Z,102360.30
2019-04-21T10:01:12.277Z,102361.52
2019-04-21T10:03:58.645Z,102355.70
2019-04-21T10:06:45.530Z,102346.86
2019-04-21T10:09:35.594Z,102340.34
2019-04-21T10:12:26.338Z,102341.82
2019-04-21T10:15:16.524Z,102337.25
2019-04-21T10:18:11.217Z,102328.52
2019-04-21T10:21:01.243Z,102326.14
2019-04-21T10:23:52.170Z,102322.61
2019-04-21T10:26:43.089Z,102321.05
2019-04-21T10:29:34.626Z,102312.21
2019-04-21T10:32:25.430Z,102317.52
2019-04-21T10:35:19.071Z,102313.86
2019-04-21T10:38:18.000Z,102311.37
2019-04-21T10:40:57.727Z,102300.24
2019-04-21T10:43:49.244Z,102303.55
2019-04-21T10:46:40.612Z,102302.17
2019-04-21T10:49:30.809Z,102300.95
2019-04-21T10:52:38.294Z,102292.03
2019-04-21T10:55:45.034Z,102279.14
2019-04-21T10:58:26.707Z,102282.41
2019-04-21T11:01:23.205Z,102278.09
2019-04-21T11:04:23.722Z,102272.23
2019-04-21T11:07:33.490Z,102265.82
2019-04-21T11:10:20.334Z,102255.69
2019-04-21T11:13:10.499Z,102251.95
2019-04-21T11:16:01.301Z,102248.20
2019-04-21T11:18:52.127Z,102249.20
2019-04-21T11:21:42.801Z,102245.17
2019-04-21T11:24:33.766Z,102233.80
2019-04-21T11:27:24.667Z,102228.19
2019-04-21T11:30:15.687Z,102229.11
2019-04-21T11:33:06.998Z,102225.92
2019-04-21T11:35:57.413Z,102215.38
2019-04-21T11:39:09.911Z,102210.55
2019-04-21T11:41:48.002Z,102209.64
2019-04-21T11:44:37.606Z,102212.27
2019-04-21T11:47:54.473Z,102207.08
2019-04-21T11:50:43.930Z,102218.11
2019-04-21T11:53:33.001Z,102204.48
2019-04-21T11:56:23.235Z,102199.91
2019-04-21T11:59:13.283Z,102194.38
2019-04-21T12:02:03.573Z,102189.93
2019-04-21T12:04:53.936Z,102183.44
2019-04-21T12:07:45.182Z,102180.33
2019-04-21T12:10:37.565Z,102178.34
2019-04-21T12:13:27.901Z,102174.73
2019-04-21T12:16:19.048Z,102177.16
2019-04-21T12:19:09.313Z,102174.38
2019-04-21T12:22:09.982Z,102177.70
2019-04-21T12:24:51.593Z,102170.66
2019-04-21T12:27:41.754Z,102167.23
2019-04-21T12:30:31.750Z,102163.97
2019-04-21T12:33:27.947Z,102152.00
2019-04-21T12:36:19.889Z,102148.21
2019-04-21T12:39:10.899Z,102150.93
2019-04-21T12:42:02.615Z,102153.41
2019-04-21T12:44:52.804Z,102143.69
2019-04-21T12:47:43.914Z,102142.09
2019-04-21T12:50:34.057Z,102132.53
2019-04-21T12:53:25.589Z,102134.06
2019-04-21T12:56:15.754Z,102133.71
2019-04-21T12:59:05.612Z,102117.67
2019-04-21T13:01:55.004Z,102114.38
2019-04-21T13:04:46.149Z,102111.72
2019-04-21T13:07:35.760Z,102101.13
2019-04-21T13:10:26.291Z,102104.75
2019-04-21T13:13:17.592Z,102090.67
2019-04-21T13:16:07.398Z,102091.84
2019-04-21T13:18:57.623Z,102090.21
2019-04-21T13:21:48.072Z,102081.96
2019-04-21T13:24:37.995Z,102082.30
2019-04-21T13:27:28.880Z,102069.84
2019-04-21T13:30:20.346Z,102065.98
2019-04-21T13:33:11.436Z,102065.63
2019-04-21T13:36:02.723Z,102056.37
2019-04-21T13:39:44.371Z,102052.53
2019-04-21T13:42:17.477Z,102050.70
2019-04-21T13:45:02.451Z,102042.34
2019-04-21T13:47:52.696Z,102045.55
2019-04-21T13:50:43.644Z,102040.90
2019-04-21T13:53:34.909Z,102038.11
2019-04-21T13:56:24.776Z,102031.95
2019-04-21T13:59:15.973Z,102031.80
2019-04-21T14:02:06.856Z,102022.20
2019-04-21T14:04:59.511Z,102013.03
2019-04-21T14:07:50.681Z,102019.94
2019-04-21T14:10:41.817Z,102008.03
2019-04-21T14:13:32.285Z,102004.30
2019-04-21T14:16:26.623Z,102013.73
2019-04-21T14:19:17.249Z,102001.30
2019-04-21T14:22:10.250Z,102000.45
2019-04-21T14:24:59.468Z,101996.91
2019-04-21T14:27:51.682Z,101993.77
2019-04-21T14:30:40.790Z,101988.52
2019-04-21T14:33:32.351Z,101981.30
2019-04-21T14:36:22.992Z,101976.37
2019-04-21T14:39:14.616Z,101977.23
2019-04-21T14:42:04.497Z,101969.88
2019-04-21T14:44:54.697Z,101975.00
2019-04-21T14:48:03.194Z,101969.69
2019-04-21T14:51:13.144Z,101961.33
2019-04-21T14:54:17.424Z,101962.98
2019-04-21T14:57:07.303Z,101956.70
2019-04-21T14:59:57.316Z,101952.88
2019-04-21T15:02:47.653Z,101946.70
2019-04-21T15:05:39.685Z,101943.16
2019-04-21T15:08:29.026Z,101944.56
2019-04-21T15:11:20.029Z,101936.33
2019-04-21T15:14:09.644Z,101942.91
2019-04-21T15:17:00.837Z,101932.67
2019-04-21T15:19:58.729Z,101933.55
2019-04-21T15:22:44.266Z,101926.58
2019-04-21T15:25:34.394Z,101926.30
2019-04-21T15:28:25.733Z,101919.13
2019-04-21T15:31:21.684Z,101919.77
2019-04-21T15:34:07.376Z,101915.62
2019-04-21T15:36:58.000Z,101911.98
2019-04-21T15:39:48.829Z,101909.45
2019-04-21T15:42:39.016Z,101905.46
2019-04-21T15:45:30.497Z,101902.52
2019-04-21T15:48:20.397Z,101901.27
2019-04-21T15:51:11.045Z,101892.39
2019-04-21T15:54:02.648Z,101888.77
2019-04-21T15:57:11.185Z,101887.69
2019-04-21T16:00:08.778Z,101889.39
2019-04-21T16:03:00.344Z,101886.09
2019-04-21T16:05:50.816Z,101887.24
2019-04-21T16:08:40.194Z,101883.52
2019-04-21T16:11:31.494Z,101877.89
2019-04-21T16:14:22.614Z,101876.63
2019-04-21T16:17:12.304Z,101868.09
2019-04-21T16:20:02.004Z,101858.19
2019-04-21T16:22:52.855Z,101855.83
2019-04-21T16:25:44.343Z,101860.34
2019-04-21T16:28:35.174Z,101854.89
2019-04-21T16:31:24.876Z,101848.88
2019-04-21T16:34:15.783Z,101843.99
2019-04-21T16:37:07.679Z,101846.06
2019-04-21T16:39:59.109Z,101844.66
2019-04-21T16:42:50.092Z,101839.30
2019-04-21T16:45:41.114Z,101830.00
2019-04-21T16:48:31.030Z,101836.77
2019-04-21T16:51:22.113Z,101836.69
2019-04-21T16:54:23.995Z,101823.59
2019-04-21T16:57:25.898Z,101818.09
2019-04-21T17:00:31.707Z,101823.36
2019-04-21T17:03:14.702Z,101817.91
2019-04-21T17:06:05.237Z,101819.20
2019-04-21T17:08:56.663Z,101818.54
2019-04-21T17:11:48.514Z,101812.89
2019-04-21T17:14:53.960Z,101807.41
2019-04-21T17:17:51.365Z,101804.96
2019-04-21T17:20:34.145Z,101803.97
2019-04-21T17:23:13.398Z,101800.30
2019-04-21T17:26:03.796Z,101786.93
2019-04-21T17:28:54.223Z,101794.20
2019-04-21T17:31:45.707Z,101796.00
2019-04-21T17:34:37.987Z,101785.24
2019-04-21T17:37:28.796Z,101782.80
2019-04-21T17:40:24.224Z,101785.44
2019-04-21T17:43:17.484Z,101786.77
2019-04-21T17:46:06.903Z,101785.58
2019-04-21T17:49:01.155Z,101784.22
2019-04-21T17:52:23.110Z,101787.08
2019-04-21T17:55:26.189Z,101786.64
2019-04-21T17:58:28.047Z,101779.86
2019-04-21T18:01:25.107Z,101773.94
2019-04-21T18:04:19.815Z,101777.20
2019-04-21T18:07:27.651Z,101779.59
2019-04-21T18:10:15.861Z,101777.41
2019-04-21T18:13:01.419Z,101776.17
2019-04-21T18:15:56.726Z,101774.84
2019-04-21T18:18:39.088Z,101774.86
2019-04-21T18:21:34.710Z,101783.19
2019-04-21T18:24:35.371Z,101780.61
2019-04-21T18:27:17.559Z,101779.54
2019-04-21T18:30:44.547Z,101778.42
2019-04-21T18:33:42.242Z,101775.00
2019-04-21T18:36:43.937Z,101774.52
2019-04-21T18:39:49.744Z,101774.31
2019-04-21T18:42:57.553Z,101773.70
2019-04-21T18:46:23.108Z,101776.78
2019-04-21T18:48:59.019Z,101780.98
2019-04-21T18:52:06.849Z,101776.06
2019-04-21T18:55:05.245Z,101780.36
2019-04-21T18:57:49.643Z,101778.52
2019-04-21T19:00:40.637Z,101779.11
2019-04-21T19:03:36.713Z,101775.41
2019-04-21T19:06:43.792Z,101774.03
2019-04-21T19:09:47.521Z,101776.09
2019-04-21T19:12:49.193Z,101775.95
2019-04-21T19:15:18.068Z,101776.30
2019-04-21T19:21:03.092Z,101775.86
2019-04-21T19:24:06.184Z,101772.59
2019-04-21T19:26:52.432Z,101776.02
2019-04-21T19:29:42.291Z,101780.30
2019-04-21T19:32:30.272Z,101779.50
2019-04-21T19:35:07.895Z,101776.14
2019-04-21T19:38:06.453Z,101775.80
2019-04-21T19:41:07.228Z,101771.82
2019-04-21T19:44:02.466Z,101770.16
2019-04-21T19:46:55.977Z,101769.50
2019-04-21T19:49:49.225Z,101761.91
2019-04-21T19:52:34.034Z,101764.23
2019-04-21T19:55:14.263Z,101761.90
2019-04-21T19:58:05.193Z,101752.48
2019-04-21T20:00:57.408Z,101750.81
2019-04-21T20:03:51.309Z,101758.64
2019-04-21T20:06:50.270Z,101752.91
2019-04-21T20:09:45.159Z,101754.75
2019-04-21T20:12:55.597Z,101751.24
2019-04-21T20:15:41.541Z,101757.56
2019-04-21T20:18:20.958Z,101755.41
2019-04-21T20:21:01.923Z,101751.86
2019-04-21T20:23:51.755Z,101747.39
2019-04-21T20:26:44.904Z,101750.61
2019-04-21T20:29:49.885Z,101748.94
2019-04-21T20:32:46.399Z,101749.45
2019-04-21T20:35:46.844Z,101742.33
2019-04-21T20:38:19.358Z,101746.92
2019-04-21T20:41:17.349Z,101744.64
2019-04-21T20:44:12.004Z,101738.38
2019-04-21T20:46:55.475Z,101737.03
2019-04-21T20:49:41.736Z,101735.21
2019-04-21T20:52:47.902Z,101729.37
2019-04-21T20:55:35.401Z,101741.55
2019-04-21T20:58:28.095Z,101733.83
2019-04-21T21:04:12.092Z,101733.30
2019-04-21T21:07:16.180Z,101730.41
2019-04-21T21:10:04.872Z,101731.78
2019-04-21T21:13:04.294Z,101726.19
2019-04-21T21:15:52.440Z,101727.95
2019-04-21T21:19:08.152Z,101730.92
2019-04-21T21:21:30.043Z,101722.38
2019-04-21T21:24:29.143Z,101722.94
2019-04-21T21:27:12.817Z,101721.09
2019-04-21T21:30:05.605Z,101724.09
2019-04-21T21:33:04.561Z,101723.91
2019-04-21T21:35:41.150Z,101723.41
2019-04-21T21:38:49.990Z,101718.77
2019-04-21T21:41:31.819Z,101719.06
2019-04-21T21:44:20.065Z,101717.52
2019-04-21T21:47:23.959Z,101713.84
2019-04-21T21:50:11.264Z,101712.88
2019-04-21T21:53:00.766Z,101713.27
2019-04-21T21:55:42.628Z,101702.77
2019-04-21T21:58:38.159Z,101704.57
2019-04-21T22:01:32.001Z,101707.06
2019-04-21T22:04:24.169Z,101702.45
2019-04-21T22:07:12.395Z,101701.45
2019-04-21T22:10:04.407Z,101699.64
2019-04-21T22:13:06.023Z,101695.94
2019-04-21T22:15:48.248Z,101699.88
2019-04-21T22:19:03.491Z,101699.30
2019-04-21T22:21:47.594Z,101698.60
2019-04-21T22:24:36.992Z,101692.64
2019-04-21T22:27:10.799Z,101696.16
2019-04-21T22:30:05.290Z,101688.82
2019-04-21T22:32:57.092Z,101687.27
2019-04-21T22:35:48.564Z,101694.73
2019-04-21T22:38:47.548Z,101681.51
2019-04-21T22:41:33.789Z,101682.67
2019-04-21T22:44:18.834Z,101683.41
2019-04-21T22:47:14.164Z,101682.34
2019-04-21T22:49:59.618Z,101676.34
2019-04-21T22:52:53.341Z,101671.22
2019-04-21T22:55:40.985Z,101665.71
2019-04-21T22:58:35.726Z,101670.39
2019-04-21T23:01:30.127Z,101665.37
2019-04-21T23:04:14.016Z,101668.23
2019-04-21T23:07:10.099Z,101664.93
2019-04-21T23:09:55.548Z,101663.08
2019-04-21T23:12:45.969Z,101660.54
2019-04-21T23:15:43.444Z,101657.26
2019-04-21T23:18:43.287Z,101659.23
2019-04-21T23:21:30.438Z,101651.44
2019-04-21T23:24:31.392Z,101647.27
2019-04-21T23:27:11.765Z,101644.83
2019-04-21T23:30:17.742Z,101637.88
2019-04-21T23:32:50.785Z,101634.97
2019-04-21T23:35:37.832Z,101636.09
2019-04-21T23:38:31.970Z,101635.46
2019-04-21T23:41:15.265Z,101631.60
2019-04-21T23:44:09.151Z,101634.55
2019-04-21T23:47:00.810Z,101629.80
2019-04-21T23:49:56.660Z,101625.14
2019-04-21T23:52:39.325Z,101623.97
2019-04-21T23:55:29.468Z,101618.27
2019-04-21T23:58:25.465Z,101613.24
